KHPT/HPT METAR and TAF weather

Enter ICAO airport designator
Station Type Date Time Source
KHPT METAR 2022/06/25 22:15 UTC NOAA

KHPT 252215Z AUTO 31012G16KT 10SM SCT033 SCT060 BKN070 27/20 A2994 RMK AO2


Station Type Date Time Source
KHPT Decoded METAR 2022/06/25 22:15 UTC NOAA

Station name not available
Jun 25, 2022 - 06:15 PM EDT / 2022.06.25 2215 UTC
Wind: from the NW (310 degrees) at 14 MPH (12 KT) gusting to 18 MPH (16 KT):0
Visibility: 10 mile(s):0
Sky conditions: mostly cloudy
Temperature: 80 F (27 C)
Dew Point: 68 F (20 C)
Relative Humidity: 65%
Pressure (altimeter): 29.94 in. Hg (1013 hPa)
ob: KHPT 252215Z AUTO 31012G16KT 10SM SCT033 SCT060 BKN070 27/20 A2994 RMK AO2
cycle: 22

Station Type Date Time Source
KHPT TAF UTC NOAA

Error!

Example: see airport list